KBJC/BJC METAR and TAF weather

Enter ICAO airport designator
Station Type Date Time Source
KBJC METAR 2018/06/25 16:47 UTC NOAA

KBJC 251647Z 00000KT 40SM FEW110 21/04 A3015


Station Type Date Time Source
KBJC Decoded METAR 2018/06/25 16:47 UTC NOAA

Broomfield / Jeffco, CO, United States (KBJC) 39-55N 105-07W
Jun 25, 2018 - 12:47 PM EDT / 2018.06.25 1647 UTC
Wind: Calm:0
Visibility: 40 mile(s):0
Sky conditions: mostly clear
Temperature: 69 F (21 C)
Dew Point: 39 F (4 C)
Relative Humidity: 32%
Pressure (altimeter): 30.15 in. Hg (1020 hPa)
ob: KBJC 251647Z 00000KT 40SM FEW110 21/04 A3015
cycle: 17

Station Type Date Time Source
KBJC TAF 2018/06/25 12:24 UTC NOAA

TAF KBJC 251123Z 2512/2612 24006KT P6SM FEW250
FM251500 16005KT P6SM FEW250
FM251700 10005KT P6SM FEW140
FM252200 20007KT P6SM FEW250


Example: see airport list